sensor_id;sensor_type;location;lat;lon;timestamp;pressure;altitude;pressure_sealevel;temperature;humidity
65359;BME280;52491;45.900;6.346;2023-04-08T00:00:43;93833.94;;;23.08;25.12
65359;BME280;52491;45.900;6.346;2023-04-08T00:03:09;93837.97;;;23.10;25.05
65359;BME280;52491;45.900;6.346;2023-04-08T00:05:35;93841.44;;;23.11;25.03
65359;BME280;52491;45.900;6.346;2023-04-08T00:08:00;93843.03;;;23.12;25.02
65359;BME280;52491;45.900;6.346;2023-04-08T00:10:26;93835.06;;;23.12;24.96
65359;BME280;52491;45.900;6.346;2023-04-08T00:12:52;93833.47;;;23.11;25.04
65359;BME280;52491;45.900;6.346;2023-04-08T00:15:17;93839.81;;;23.10;25.00
65359;BME280;52491;45.900;6.346;2023-04-08T00:17:43;93828.41;;;23.09;24.94
65359;BME280;52491;45.900;6.346;2023-04-08T00:20:09;93831.84;;;23.10;24.97
65359;BME280;52491;45.900;6.346;2023-04-08T00:22:35;93826.81;;;23.08;24.87
65359;BME280;52491;45.900;6.346;2023-04-08T00:25:01;93828.41;;;23.09;24.88
65359;BME280;52491;45.900;6.346;2023-04-08T00:27:27;93827.59;;;23.09;24.83
65359;BME280;52491;45.900;6.346;2023-04-08T00:29:53;93834.78;;;23.08;24.93
65359;BME280;52491;45.900;6.346;2023-04-08T00:32:18;93828.63;;;23.08;24.86
65359;BME280;52491;45.900;6.346;2023-04-08T00:34:44;93828.63;;;23.08;24.87
65359;BME280;52491;45.900;6.346;2023-04-08T00:37:09;93832.13;;;23.08;25.04
65359;BME280;52491;45.900;6.346;2023-04-08T00:39:36;93832.91;;;23.09;24.84
65359;BME280;52491;45.900;6.346;2023-04-08T00:42:01;93832.13;;;23.08;24.88
65359;BME280;52491;45.900;6.346;2023-04-08T00:44:27;93825.97;;;23.08;24.71
65359;BME280;52491;45.900;6.346;2023-04-08T00:46:53;93831.81;;;23.05;25.00
65359;BME280;52491;45.900;6.346;2023-04-08T00:51:44;93832.63;;;23.05;24.79
65359;BME280;52491;45.900;6.346;2023-04-08T00:54:10;93821.16;;;23.05;24.76
65359;BME280;52491;45.900;6.346;2023-04-08T00:56:36;93824.66;;;23.05;24.72
65359;BME280;52491;45.900;6.346;2023-04-08T00:59:02;93822.78;;;23.06;24.84
65359;BME280;52491;45.900;6.346;2023-04-08T01:01:43;93818.28;;;23.06;24.76
65359;BME280;52491;45.900;6.346;2023-04-08T01:04:32;93819.06;;;23.07;24.95
65359;BME280;52491;45.900;6.346;2023-04-08T01:07:14;93821.16;;;23.05;24.70
65359;BME280;52491;45.900;6.346;2023-04-08T01:09:46;93824.66;;;23.05;24.77
65359;BME280;52491;45.900;6.346;2023-04-08T01:12:25;93823.31;;;23.08;24.69
65359;BME280;52491;45.900;6.346;2023-04-08T01:15:04;93825.19;;;23.07;24.61
65359;BME280;52491;45.900;6.346;2023-04-08T01:17:31;93825.97;;;23.08;24.60
65359;BME280;52491;45.900;6.346;2023-04-08T01:19:59;93835.56;;;23.09;24.61
65359;BME280;52491;45.900;6.346;2023-04-08T01:22:55;93825.72;;;23.09;24.59
65359;BME280;52491;45.900;6.346;2023-04-08T01:25:32;93827.59;;;23.09;24.77
65359;BME280;52491;45.900;6.346;2023-04-08T01:28:04;93826.53;;;23.10;24.61
65359;BME280;52491;45.900;6.346;2023-04-08T01:30:32;93819.84;;;23.07;24.50
65359;BME280;52491;45.900;6.346;2023-04-08T01:33:01;93816.16;;;23.08;24.67
65359;BME280;52491;45.900;6.346;2023-04-08T01:35:27;93816.97;;;23.09;24.42
65359;BME280;52491;45.900;6.346;2023-04-08T01:37:54;93826.53;;;23.10;24.57
65359;BME280;52491;45.900;6.346;2023-04-08T01:40:21;93823.06;;;23.09;24.55
65359;BME280;52491;45.900;6.346;2023-04-08T01:42:47;93825.50;;;23.11;24.61
65359;BME280;52491;45.900;6.346;2023-04-08T01:45:14;93826.53;;;23.10;24.49
65359;BME280;52491;45.900;6.346;2023-04-08T01:47:42;93820.97;;;23.11;24.57
65359;BME280;52491;45.900;6.346;2023-04-08T01:50:09;93822.84;;;23.11;24.43
65359;BME280;52491;45.900;6.346;2023-04-08T01:52:37;93821.75;;;23.12;24.44
65359;BME280;52491;45.900;6.346;2023-04-08T01:55:04;93820.97;;;23.11;24.54
65359;BME280;52491;45.900;6.346;2023-04-08T01:57:34;93819.91;;;23.12;24.70
65359;BME280;52491;45.900;6.346;2023-04-08T02:00:05;93817.25;;;23.12;24.41
65359;BME280;52491;45.900;6.346;2023-04-08T02:02:32;93813.50;;;23.13;24.52
65359;BME280;52491;45.900;6.346;2023-04-08T02:04:59;93813.22;;;23.10;24.41
65359;BME280;52491;45.900;6.346;2023-04-08T02:07:25;93819.09;;;23.12;24.44
65359;BME280;52491;45.900;6.346;2023-04-08T02:09:50;93819.34;;;23.10;24.38
65359;BME280;52491;45.900;6.346;2023-04-08T02:12:16;93821.75;;;23.12;24.36
65359;BME280;52491;45.900;6.346;2023-04-08T02:14:42;93823.63;;;23.11;24.50
65359;BME280;52491;45.900;6.346;2023-04-08T02:17:10;93831.34;;;23.13;24.30
65359;BME280;52491;45.900;6.346;2023-04-08T02:19:46;93830.53;;;23.12;24.36
65359;BME280;52491;45.900;6.346;2023-04-08T02:22:26;93825.78;;;23.14;24.43
65359;BME280;52491;45.900;6.346;2023-04-08T02:24:54;93822.56;;;23.12;24.25
65359;BME280;52491;45.900;6.346;2023-04-08T02:27:23;93823.34;;;23.13;24.32
65359;BME280;52491;45.900;6.346;2023-04-08T02:29:50;93826.00;;;23.13;24.29
65359;BME280;52491;45.900;6.346;2023-04-08T02:32:20;93819.66;;;23.14;24.29
65359;BME280;52491;45.900;6.346;2023-04-08T02:34:48;93818.59;;;23.15;24.30
65359;BME280;52491;45.900;6.346;2023-04-08T02:37:14;93820.47;;;23.14;24.29
65359;BME280;52491;45.900;6.346;2023-04-08T02:39:40;93818.59;;;23.15;24.30
65359;BME280;52491;45.900;6.346;2023-04-08T02:42:06;93811.69;;;23.14;24.13
65359;BME280;52491;45.900;6.346;2023-04-08T02:44:31;93822.03;;;23.15;24.31
65359;BME280;52491;45.900;6.346;2023-04-08T02:46:58;93811.16;;;23.17;24.25
65359;BME280;52491;45.900;6.346;2023-04-08T02:49:25;93816.47;;;23.17;24.35
65359;BME280;52491;45.900;6.346;2023-04-08T02:51:52;93819.16;;;23.17;24.42
65359;BME280;52491;45.900;6.346;2023-04-08T02:54:17;93813.56;;;23.18;24.39
65359;BME280;52491;45.900;6.346;2023-04-08T02:56:43;93815.41;;;23.18;24.35
65359;BME280;52491;45.900;6.346;2023-04-08T02:59:08;93815.69;;;23.16;24.40
65359;BME280;52491;45.900;6.346;2023-04-08T03:01:34;93818.34;;;23.16;24.41
65359;BME280;52491;45.900;6.346;2023-04-08T03:04:00;93815.41;;;23.18;24.36
65359;BME280;52491;45.900;6.346;2023-04-08T03:06:26;93820.75;;;23.18;24.80
65359;BME280;52491;45.900;6.346;2023-04-08T03:08:52;93824.19;;;23.18;24.66
65359;BME280;52491;45.900;6.346;2023-04-08T03:11:17;93828.72;;;23.18;24.64
65359;BME280;52491;45.900;6.346;2023-04-08T03:13:43;93826.59;;;23.20;24.78
65359;BME280;52491;45.900;6.346;2023-04-08T03:16:08;93826.59;;;23.20;24.83
65359;BME280;52491;45.900;6.346;2023-04-08T03:18:34;93821.00;;;23.21;24.83
65359;BME280;52491;45.900;6.346;2023-04-08T03:20:59;93821.84;;;23.22;24.82
65359;BME280;52491;45.900;6.346;2023-04-08T03:23:27;93821.56;;;23.23;24.78
65359;BME280;52491;45.900;6.346;2023-04-08T03:25:52;93830.34;;;23.24;24.84
65359;BME280;52491;45.900;6.346;2023-04-08T03:28:18;93825.81;;;23.24;24.85
65359;BME280;52491;45.900;6.346;2023-04-08T03:30:44;93823.16;;;23.24;24.66
65359;BME280;52491;45.900;6.346;2023-04-08T03:33:09;93819.72;;;23.24;24.49
65359;BME280;52491;45.900;6.346;2023-04-08T03:35:35;93820.22;;;23.21;24.58
65359;BME280;52491;45.900;6.346;2023-04-08T03:38:01;93821.84;;;23.22;24.58
65359;BME280;52491;45.900;6.346;2023-04-08T03:40:27;93831.13;;;23.24;24.73
65359;BME280;52491;45.900;6.346;2023-04-08T03:42:52;93825.81;;;23.24;24.51
65359;BME280;52491;45.900;6.346;2023-04-08T03:45:18;93827.44;;;23.26;24.77
65359;BME280;52491;45.900;6.346;2023-04-08T03:47:44;93830.09;;;23.26;24.70
65359;BME280;52491;45.900;6.346;2023-04-08T03:50:09;93834.13;;;23.28;24.68
65359;BME280;52491;45.900;6.346;2023-04-08T03:52:35;93827.72;;;23.29;24.76
65359;BME280;52491;45.900;6.346;2023-04-08T03:55:01;93828.28;;;23.31;24.52
65359;BME280;52491;45.900;6.346;2023-04-08T03:57:26;93825.63;;;23.31;24.66
65359;BME280;52491;45.900;6.346;2023-04-08T03:59:52;93821.88;;;23.32;24.61
65359;BME280;52491;45.900;6.346;2023-04-08T04:02:18;93829.88;;;23.32;24.46
65359;BME280;52491;45.900;6.346;2023-04-08T04:04:43;93828.00;;;23.33;24.25
65359;BME280;52491;45.900;6.346;2023-04-08T04:07:09;93826.97;;;23.34;24.53
65359;BME280;52491;45.900;6.346;2023-04-08T04:09:34;93833.88;;;23.35;24.62
65359;BME280;52491;45.900;6.346;2023-04-08T04:12:00;93833.88;;;23.35;24.55
65359;BME280;52491;45.900;6.346;2023-04-08T04:14:25;93832.28;;;23.34;24.57
65359;BME280;52491;45.900;6.346;2023-04-08T04:16:51;93834.94;;;23.34;24.60
65359;BME280;52491;45.900;6.346;2023-04-08T04:19:17;93835.75;;;23.34;24.57
65359;BME280;52491;45.900;6.346;2023-04-08T04:21:43;93832.84;;;23.36;24.53
65359;BME280;52491;45.900;6.346;2023-04-08T04:24:08;93831.78;;;23.37;24.51
65359;BME280;52491;45.900;6.346;2023-04-08T04:26:34;93831.78;;;23.37;24.54
65359;BME280;52491;45.900;6.346;2023-04-08T04:29:00;93840.59;;;23.42;24.57
65359;BME280;52491;45.900;6.346;2023-04-08T04:31:25;93845.09;;;23.42;24.33
65359;BME280;52491;45.900;6.346;2023-04-08T04:33:51;93846.97;;;23.41;24.53
65359;BME280;52491;45.900;6.346;2023-04-08T04:36:17;93846.69;;;23.43;24.46
65359;BME280;52491;45.900;6.346;2023-04-08T04:38:44;93844.03;;;23.43;24.38
65359;BME280;52491;45.900;6.346;2023-04-08T04:41:10;93849.13;;;23.44;24.57
65359;BME280;52491;45.900;6.346;2023-04-08T04:43:35;93847.25;;;23.45;24.51
65359;BME280;52491;45.900;6.346;2023-04-08T04:46:01;93852.56;;;23.45;24.52
65359;BME280;52491;45.900;6.346;2023-04-08T04:48:28;93848.84;;;23.46;24.50
65359;BME280;52491;45.900;6.346;2023-04-08T04:50:55;93852.31;;;23.46;24.62
65359;BME280;52491;45.900;6.346;2023-04-08T04:53:20;93855.78;;;23.47;24.57
65359;BME280;52491;45.900;6.346;2023-04-08T04:55:46;93851.25;;;23.48;24.40
65359;BME280;52491;45.900;6.346;2023-04-08T04:58:12;93855.50;;;23.49;24.53
65359;BME280;52491;45.900;6.346;2023-04-08T05:00:37;93858.19;;;23.49;24.71
65359;BME280;52491;45.900;6.346;2023-04-08T05:03:03;93858.97;;;23.49;24.44
65359;BME280;52491;45.900;6.346;2023-04-08T05:05:28;93859.75;;;23.50;24.49
65359;BME280;52491;45.900;6.346;2023-04-08T05:07:54;93864.28;;;23.49;24.51
65359;BME280;52491;45.900;6.346;2023-04-08T05:10:19;93864.03;;;23.51;24.62
65359;BME280;52491;45.900;6.346;2023-04-08T05:12:45;93867.50;;;23.51;24.73
65359;BME280;52491;45.900;6.346;2023-04-08T05:15:11;93864.59;;;23.53;24.33
65359;BME280;52491;45.900;6.346;2023-04-08T05:17:36;93863.53;;;23.54;24.54
65359;BME280;52491;45.900;6.346;2023-04-08T05:20:02;93868.84;;;23.54;24.49
65359;BME280;52491;45.900;6.346;2023-04-08T05:22:28;93864.59;;;23.53;24.36
65359;BME280;52491;45.900;6.346;2023-04-08T05:24:53;93871.75;;;23.52;24.53
65359;BME280;52491;45.900;6.346;2023-04-08T05:27:19;93865.63;;;23.52;24.53
65359;BME280;52491;45.900;6.346;2023-04-08T05:29:46;93870.97;;;23.52;24.52
65359;BME280;52491;45.900;6.346;2023-04-08T05:32:12;93870.72;;;23.53;24.43
65359;BME280;52491;45.900;6.346;2023-04-08T05:34:37;93875.75;;;23.55;24.66
65359;BME280;52491;45.900;6.346;2023-04-08T05:37:03;93872.59;;;23.53;24.59
65359;BME280;52491;45.900;6.346;2023-04-08T05:39:28;93872.03;;;23.51;24.54
65359;BME280;52491;45.900;6.346;2023-04-08T05:41:54;93871.22;;;23.50;24.78
65359;BME280;52491;45.900;6.346;2023-04-08T05:44:19;93873.91;;;23.50;24.62
65359;BME280;52491;45.900;6.346;2023-04-08T05:46:45;93872.28;;;23.49;24.75
65359;BME280;52491;45.900;6.346;2023-04-08T05:49:10;93875.72;;;23.50;24.70
65359;BME280;52491;45.900;6.346;2023-04-08T05:51:37;93874.13;;;23.49;24.71
65359;BME280;52491;45.900;6.346;2023-04-08T05:54:03;93878.38;;;23.50;24.81
65359;BME280;52491;45.900;6.346;2023-04-08T05:56:29;93880.53;;;23.48;24.79
65359;BME280;52491;45.900;6.346;2023-04-08T05:58:56;93879.22;;;23.50;24.70
65359;BME280;52491;45.900;6.346;2023-04-08T06:01:22;93885.34;;;23.51;24.65
65359;BME280;52491;45.900;6.346;2023-04-08T06:03:48;93882.69;;;23.51;24.76
65359;BME280;52491;45.900;6.346;2023-04-08T06:06:13;93880.81;;;23.51;24.82
65359;BME280;52491;45.900;6.346;2023-04-08T06:08:39;93891.44;;;23.51;24.60
65359;BME280;52491;45.900;6.346;2023-04-08T06:11:05;93882.41;;;23.52;24.58
65359;BME280;52491;45.900;6.346;2023-04-08T06:13:31;93893.34;;;23.56;24.85
65359;BME280;52491;45.900;6.346;2023-04-08T06:15:58;93890.19;;;23.59;24.73
65359;BME280;52491;45.900;6.346;2023-04-08T06:18:25;93897.66;;;23.62;24.41
65359;BME280;52491;45.900;6.346;2023-04-08T06:20:51;93894.72;;;23.63;24.46
65359;BME280;52491;45.900;6.346;2023-04-08T06:23:16;93887.78;;;23.62;24.56
65359;BME280;52491;45.900;6.346;2023-04-08T06:25:42;93889.66;;;23.62;24.58
65359;BME280;52491;45.900;6.346;2023-04-08T06:28:07;93888.59;;;23.63;24.50
65359;BME280;52491;45.900;6.346;2023-04-08T06:30:33;93892.03;;;23.63;24.38
65359;BME280;52491;45.900;6.346;2023-04-08T06:32:59;93885.94;;;23.63;24.44
65359;BME280;52491;45.900;6.346;2023-04-08T06:35:24;93891.25;;;23.63;24.47
65359;BME280;52491;45.900;6.346;2023-04-08T06:37:50;93888.03;;;23.61;24.74
65359;BME280;52491;45.900;6.346;2023-04-08T06:40:16;93882.72;;;23.61;24.63
65359;BME280;52491;45.900;6.346;2023-04-08T06:42:41;93886.19;;;23.61;24.58
65359;BME280;52491;45.900;6.346;2023-04-08T06:45:09;93880.88;;;23.61;24.73
65359;BME280;52491;45.900;6.346;2023-04-08T06:47:34;93882.47;;;23.62;24.69
65359;BME280;52491;45.900;6.346;2023-04-08T06:50:01;93883.53;;;23.61;24.79
65359;BME280;52491;45.900;6.346;2023-04-08T06:52:28;93886.19;;;23.61;24.68
65359;BME280;52491;45.900;6.346;2023-04-08T06:54:53;93882.47;;;23.62;24.64
65359;BME280;52491;45.900;6.346;2023-04-08T06:57:19;93881.69;;;23.62;24.83
65359;BME280;52491;45.900;6.346;2023-04-08T06:59:46;93887.78;;;23.62;24.72
65359;BME280;52491;45.900;6.346;2023-04-08T07:02:19;93886.44;;;23.60;24.87
65359;BME280;52491;45.900;6.346;2023-04-08T07:04:47;93892.03;;;23.58;24.87
65359;BME280;52491;45.900;6.346;2023-04-08T07:07:13;93889.09;;;23.60;24.98
65359;BME280;52491;45.900;6.346;2023-04-08T07:09:39;93888.03;;;23.61;25.04
65359;BME280;52491;45.900;6.346;2023-04-08T07:12:07;93891.78;;;23.60;25.08
65359;BME280;52491;45.900;6.346;2023-04-08T07:14:33;93888.59;;;23.63;24.98
65359;BME280;52491;45.900;6.346;2023-04-08T07:16:58;93896.06;;;23.66;24.78
65359;BME280;52491;45.900;6.346;2023-04-08T07:19:24;93891.53;;;23.66;25.13
65359;BME280;52491;45.900;6.346;2023-04-08T07:21:50;93882.75;;;23.66;24.96
65359;BME280;52491;45.900;6.346;2023-04-08T07:24:17;93887.84;;;23.67;25.04
65359;BME280;52491;45.900;6.346;2023-04-08T07:26:44;93888.63;;;23.68;25.33
65359;BME280;52491;45.900;6.346;2023-04-08T07:29:09;93888.88;;;23.66;25.44
65359;BME280;52491;45.900;6.346;2023-04-08T07:31:35;93885.41;;;23.66;25.45
65359;BME280;52491;45.900;6.346;2023-04-08T07:34:02;93895.03;;;23.67;25.42
65359;BME280;52491;45.900;6.346;2023-04-08T07:36:28;93891.03;;;23.70;25.23
65359;BME280;52491;45.900;6.346;2023-04-08T07:38:53;93890.56;;;23.73;25.14
65359;BME280;52491;45.900;6.346;2023-04-08T07:41:19;93890.28;;;23.74;25.03
65359;BME280;52491;45.900;6.346;2023-04-08T07:43:45;93891.91;;;23.75;24.94
65359;BME280;52491;45.900;6.346;2023-04-08T07:46:11;93892.16;;;23.74;25.05
65359;BME280;52491;45.900;6.346;2023-04-08T07:48:36;93890.03;;;23.76;24.92
65359;BME280;52491;45.900;6.346;2023-04-08T07:51:07;93895.38;;;23.76;24.72
65359;BME280;52491;45.900;6.346;2023-04-08T07:53:33;93888.69;;;23.73;24.53
65359;BME280;52491;45.900;6.346;2023-04-08T07:55:59;93887.91;;;23.73;24.83
65359;BME280;52491;45.900;6.346;2023-04-08T07:58:25;93896.91;;;23.72;24.54
65359;BME280;52491;45.900;6.346;2023-04-08T08:00:52;93896.38;;;23.70;23.64
65359;BME280;52491;45.900;6.346;2023-04-08T08:03:17;93896.06;;;23.66;23.66
65359;BME280;52491;45.900;6.346;2023-04-08T08:05:43;93893.91;;;23.63;23.86
65359;BME280;52491;45.900;6.346;2023-04-08T08:08:09;93893.13;;;23.62;23.52
65359;BME280;52491;45.900;6.346;2023-04-08T08:10:38;93896.56;;;23.63;23.54
65359;BME280;52491;45.900;6.346;2023-04-08T08:13:04;93894.44;;;23.60;23.18
65359;BME280;52491;45.900;6.346;2023-04-08T08:15:31;93902.38;;;23.55;23.01
65359;BME280;52491;45.900;6.346;2023-04-08T08:17:56;93900.22;;;23.52;23.10
65359;BME280;52491;45.900;6.346;2023-04-08T08:20:22;93898.63;;;23.51;23.17
65359;BME280;52491;45.900;6.346;2023-04-08T08:22:47;93901.84;;;23.53;23.21
65359;BME280;52491;45.900;6.346;2023-04-08T08:25:13;93900.78;;;23.54;23.17
65359;BME280;52491;45.900;6.346;2023-04-08T08:27:38;93900.78;;;23.54;23.51
65359;BME280;52491;45.900;6.346;2023-04-08T08:30:07;93901.53;;;23.49;23.07
65359;BME280;52491;45.900;6.346;2023-04-08T08:32:33;93899.94;;;23.48;22.93
65359;BME280;52491;45.900;6.346;2023-04-08T08:34:59;93902.34;;;23.50;23.16
65359;BME280;52491;45.900;6.346;2023-04-08T08:37:24;93903.97;;;23.51;23.17
65359;BME280;52491;45.900;6.346;2023-04-08T08:39:50;93900.22;;;23.52;23.15
65359;BME280;52491;45.900;6.346;2023-04-08T08:42:20;93895.72;;;23.52;23.02
65359;BME280;52491;45.900;6.346;2023-04-08T08:44:47;93907.19;;;23.53;23.08
65359;BME280;52491;45.900;6.346;2023-04-08T08:47:13;93903.44;;;23.54;23.23
65359;BME280;52491;45.900;6.346;2023-04-08T08:49:39;93900.78;;;23.54;22.97
65359;BME280;52491;45.900;6.346;2023-04-08T08:52:04;93905.03;;;23.55;23.15
65359;BME280;52491;45.900;6.346;2023-04-08T08:54:31;93896.25;;;23.54;23.04
65359;BME280;52491;45.900;6.346;2023-04-08T08:56:56;93896.25;;;23.54;23.24
65359;BME280;52491;45.900;6.346;2023-04-08T08:59:22;93901.34;;;23.56;23.21
65359;BME280;52491;45.900;6.346;2023-04-08T09:01:48;93902.94;;;23.57;23.39
65359;BME280;52491;45.900;6.346;2023-04-08T09:04:15;93901.06;;;23.57;23.37
65359;BME280;52491;45.900;6.346;2023-04-08T09:06:43;93898.41;;;23.57;23.64
65359;BME280;52491;45.900;6.346;2023-04-08T09:09:09;93903.72;;;23.57;23.35
65359;BME280;52491;45.900;6.346;2023-04-08T09:11:43;93900.81;;;23.59;23.44
65359;BME280;52491;45.900;6.346;2023-04-08T09:16:44;93900.53;;;23.60;23.77
65359;BME280;52491;45.900;6.346;2023-04-08T09:19:10;93898.97;;;23.59;23.91
65359;BME280;52491;45.900;6.346;2023-04-08T09:21:36;93894.19;;;23.61;24.11
65359;BME280;52491;45.900;6.346;2023-04-08T09:24:02;93892.88;;;23.64;24.14
65359;BME280;52491;45.900;6.346;2023-04-08T09:26:28;93893.94;;;23.68;24.13
65359;BME280;52491;45.900;6.346;2023-04-08T09:31:36;93888.38;;;23.70;24.48
65359;BME280;52491;45.900;6.346;2023-04-08T09:34:13;93895.53;;;23.69;24.44
65359;BME280;52491;45.900;6.346;2023-04-08T09:36:41;93892.66;;;23.71;24.37
65359;BME280;52491;45.900;6.346;2023-04-08T09:39:07;93889.72;;;23.72;24.43
65359;BME280;52491;45.900;6.346;2023-04-08T09:41:33;93893.22;;;23.73;24.60
65359;BME280;52491;45.900;6.346;2023-04-08T09:44:02;93883.59;;;23.72;24.65
65359;BME280;52491;45.900;6.346;2023-04-08T09:49:10;93884.16;;;23.74;24.79
65359;BME280;52491;45.900;6.346;2023-04-08T09:51:46;93883.38;;;23.73;24.78
65359;BME280;52491;45.900;6.346;2023-04-08T09:54:14;93882.56;;;23.73;24.66
65359;BME280;52491;45.900;6.346;2023-04-08T09:56:59;93881.75;;;23.72;24.82
65359;BME280;52491;45.900;6.346;2023-04-08T09:59:29;93886.03;;;23.73;24.96
65359;BME280;52491;45.900;6.346;2023-04-08T10:02:00;93886.03;;;23.73;24.83
65359;BME280;52491;45.900;6.346;2023-04-08T10:04:31;93876.19;;;23.74;24.73
65359;BME280;52491;45.900;6.346;2023-04-08T10:07:03;93876.97;;;23.74;24.97
65359;BME280;52491;45.900;6.346;2023-04-08T10:09:32;93868.75;;;23.76;24.92
65359;BME280;52491;45.900;6.346;2023-04-08T10:11:58;93870.59;;;23.75;25.10
65359;BME280;52491;45.900;6.346;2023-04-08T10:14:24;93866.09;;;23.76;24.97
65359;BME280;52491;45.900;6.346;2023-04-08T10:17:25;93867.44;;;23.78;24.93
65359;BME280;52491;45.900;6.346;2023-04-08T10:19:59;93856.78;;;23.78;24.98
65359;BME280;52491;45.900;6.346;2023-04-08T10:27:42;93866.63;;;23.83;24.79
65359;BME280;52491;45.900;6.346;2023-04-08T10:32:55;93863.94;;;23.73;22.85
65359;BME280;52491;45.900;6.346;2023-04-08T10:35:37;93859.28;;;23.58;22.81
65359;BME280;52491;45.900;6.346;2023-04-08T10:38:06;93848.56;;;23.42;22.53
65359;BME280;52491;45.900;6.346;2023-04-08T10:40:36;93859.94;;;23.33;22.50
65359;BME280;52491;45.900;6.346;2023-04-08T10:43:03;93851.09;;;23.27;22.46
65359;BME280;52491;45.900;6.346;2023-04-08T10:45:32;93849.22;;;23.22;22.64
65359;BME280;52491;45.900;6.346;2023-04-08T10:50:57;93849.00;;;23.29;23.08
65359;BME280;52491;45.900;6.346;2023-04-08T10:53:29;93841.34;;;23.38;23.47
65359;BME280;52491;45.900;6.346;2023-04-08T10:56:07;93850.16;;;23.43;23.94
65359;BME280;52491;45.900;6.346;2023-04-08T10:58:36;93848.84;;;23.46;24.18
65359;BME280;52491;45.900;6.346;2023-04-08T11:01:13;93845.41;;;23.51;24.03
65359;BME280;52491;45.900;6.346;2023-04-08T11:03:41;93832.94;;;23.56;24.05
65359;BME280;52491;45.900;6.346;2023-04-08T11:06:07;93849.72;;;23.57;24.37
65359;BME280;52491;45.900;6.346;2023-04-08T11:08:34;93846.28;;;23.61;24.33
65359;BME280;52491;45.900;6.346;2023-04-08T11:11:01;93850.28;;;23.64;24.33
65359;BME280;52491;45.900;6.346;2023-04-08T11:13:27;93843.91;;;23.65;24.51
65359;BME280;52491;45.900;6.346;2023-04-08T11:15:54;93848.94;;;23.66;24.39
65359;BME280;52491;45.900;6.346;2023-04-08T11:18:21;93839.91;;;23.67;24.16
65359;BME280;52491;45.900;6.346;2023-04-08T11:20:49;93841.50;;;23.68;24.44
65359;BME280;52491;45.900;6.346;2023-04-08T11:23:16;93837.81;;;23.70;24.29
65359;BME280;52491;45.900;6.346;2023-04-08T11:25:42;93842.09;;;23.71;24.31
65359;BME280;52491;45.900;6.346;2023-04-08T11:28:10;93833.28;;;23.70;23.94
65359;BME280;52491;45.900;6.346;2023-04-08T11:30:37;93828.78;;;23.71;24.29
65359;BME280;52491;45.900;6.346;2023-04-08T11:33:02;93834.09;;;23.71;24.18
65359;BME280;52491;45.900;6.346;2023-04-08T11:35:28;93836.78;;;23.71;24.10
65359;BME280;52491;45.900;6.346;2023-04-08T11:37:55;93842.31;;;23.69;24.04
65359;BME280;52491;45.900;6.346;2023-04-08T11:40:21;93837.81;;;23.70;23.99
65359;BME280;52491;45.900;6.346;2023-04-08T11:42:48;93833.28;;;23.70;24.05
65359;BME280;52491;45.900;6.346;2023-04-08T11:45:15;93834.09;;;23.71;23.93
65359;BME280;52491;45.900;6.346;2023-04-08T11:47:43;93830.06;;;23.68;23.99
65359;BME280;52491;45.900;6.346;2023-04-08T11:50:08;93839.66;;;23.69;24.05
65359;BME280;52491;45.900;6.346;2023-04-08T11:52:42;93832.50;;;23.70;24.09
65359;BME280;52491;45.900;6.346;2023-04-08T11:55:24;93831.13;;;23.67;23.84
65359;BME280;52491;45.900;6.346;2023-04-08T11:57:51;93831.94;;;23.67;24.12
65359;BME280;52491;45.900;6.346;2023-04-08T12:00:18;93830.63;;;23.70;24.18
65359;BME280;52491;45.900;6.346;2023-04-08T12:02:45;93833.28;;;23.70;23.88
65359;BME280;52491;45.900;6.346;2023-04-08T12:05:15;93827.97;;;23.70;23.79
65359;BME280;52491;45.900;6.346;2023-04-08T12:07:41;93821.84;;;23.70;23.75
65359;BME280;52491;45.900;6.346;2023-04-08T12:10:08;93829.00;;;23.69;24.16
65359;BME280;52491;45.900;6.346;2023-04-08T12:12:33;93831.44;;;23.71;24.04
65359;BME280;52491;45.900;6.346;2023-04-08T12:15:00;93830.38;;;23.72;24.04
65359;BME280;52491;45.900;6.346;2023-04-08T12:17:26;93819.72;;;23.72;24.09
65359;BME280;52491;45.900;6.346;2023-04-08T12:19:52;93829.34;;;23.73;24.56
65359;BME280;52491;45.900;6.346;2023-04-08T12:22:19;93825.59;;;23.74;24.81
65359;BME280;52491;45.900;6.346;2023-04-08T12:24:45;93828.25;;;23.74;25.10
65359;BME280;52491;45.900;6.346;2023-04-08T12:27:11;93830.38;;;23.72;25.11
65359;BME280;52491;45.900;6.346;2023-04-08T12:29:37;93826.69;;;23.73;24.75
65359;BME280;52491;45.900;6.346;2023-04-08T12:32:02;93829.59;;;23.71;24.42
65359;BME280;52491;45.900;6.346;2023-04-08T12:34:30;93827.47;;;23.73;24.66
65359;BME280;52491;45.900;6.346;2023-04-08T12:36:55;93830.69;;;23.75;25.06
65359;BME280;52491;45.900;6.346;2023-04-08T12:39:21;93819.50;;;23.78;25.17
65359;BME280;52491;45.900;6.346;2023-04-08T12:41:47;93820.56;;;23.77;25.31
65359;BME280;52491;45.900;6.346;2023-04-08T12:44:12;93825.63;;;23.79;25.10
65359;BME280;52491;45.900;6.346;2023-04-08T12:46:38;93827.22;;;23.80;25.27
65359;BME280;52491;45.900;6.346;2023-04-08T12:49:04;93824.31;;;23.81;25.17
65359;BME280;52491;45.900;6.346;2023-04-08T12:51:29;93836.56;;;23.82;25.30
65359;BME280;52491;45.900;6.346;2023-04-08T12:53:55;93815.25;;;23.82;25.14
65359;BME280;52491;45.900;6.346;2023-04-08T12:56:21;93816.06;;;23.83;25.43
65359;BME280;52491;45.900;6.346;2023-04-08T12:58:46;93808.84;;;23.83;25.32
65359;BME280;52491;45.900;6.346;2023-04-08T13:01:12;93816.84;;;23.83;25.54
65359;BME280;52491;45.900;6.346;2023-04-08T13:03:38;93811.53;;;23.83;25.57
65359;BME280;52491;45.900;6.346;2023-04-08T13:06:04;93816.84;;;23.83;25.46
65359;BME280;52491;45.900;6.346;2023-04-08T13:08:29;93808.84;;;23.83;25.30
65359;BME280;52491;45.900;6.346;2023-04-08T13:10:55;93810.47;;;23.84;25.46
65359;BME280;52491;45.900;6.346;2023-04-08T13:13:21;93814.19;;;23.83;25.63
65359;BME280;52491;45.900;6.346;2023-04-08T13:15:46;93811.53;;;23.83;25.70
65359;BME280;52491;45.900;6.346;2023-04-08T13:18:12;93807.81;;;23.84;25.62
65359;BME280;52491;45.900;6.346;2023-04-08T13:20:38;93809.41;;;23.85;25.74